Time;durP1;ratioP1;P1;durP2;ratioP2;P2;SDS_P1;SDS_P2;PMS_P1;PMS_P2;Temp;Humidity;BMP_temperature;BMP_pressure;BME280_temperature;BME280_humidity;BME280_pressure;Samples;Min_cycle;Max_cycle;Signal;HPM_P1;HPM_P2
2023/10/30 00:00:49;;;;;;;21.20;12.88;;;25.40;99.90;;;;;;5025260;28;20128;-57
2023/10/30 00:03:15;;;;;;;22.05;13.13;;;25.40;99.90;;;;;;5029002;28;20057;-57
2023/10/30 00:05:41;;;;;;;22.52;13.20;;;25.40;99.90;;;;;;5029995;28;20021;-57
2023/10/30 00:08:07;;;;;;;21.15;12.98;;;25.40;99.90;;;;;;5030077;28;20047;-55
2023/10/30 00:10:36;;;;;;;20.35;13.43;;;25.40;99.90;;;;;;5023758;28;20041;-55
2023/10/30 00:13:02;;;;;;;23.00;12.82;;;25.40;99.90;;;;;;5029182;28;20042;-55
2023/10/30 00:15:28;;;;;;;21.83;14.10;;;25.40;99.90;;;;;;5029687;28;20484;-55
2023/10/30 00:17:53;;;;;;;18.67;12.35;;;25.40;99.90;;;;;;5012559;28;20025;-56
2023/10/30 00:20:19;;;;;;;20.08;12.40;;;25.40;99.90;;;;;;5029250;28;20035;-56
2023/10/30 00:22:45;;;;;;;19.95;13.00;;;25.30;99.90;;;;;;5030459;28;20064;-57
2023/10/30 00:25:11;;;;;;;20.73;13.38;;;25.30;99.90;;;;;;5030503;28;20067;-57
2023/10/30 00:27:37;;;;;;;19.35;12.73;;;25.30;99.90;;;;;;5013258;28;20072;-56
2023/10/30 00:30:03;;;;;;;19.77;11.75;;;25.30;99.90;;;;;;5013036;28;20026;-55
2023/10/30 00:32:30;;;;;;;21.92;12.43;;;25.30;99.90;;;;;;5029369;28;20021;-56
2023/10/30 00:34:56;;;;;;;19.38;12.65;;;25.30;99.90;;;;;;5029646;28;20030;-56
2023/10/30 00:37:23;;;;;;;18.02;12.18;;;25.30;99.90;;;;;;5030422;28;20021;-56
2023/10/30 00:39:49;;;;;;;17.98;11.82;;;25.30;99.90;;;;;;5030122;28;20029;-56
2023/10/30 00:42:14;;;;;;;13.85;9.98;;;25.30;99.90;;;;;;5029826;28;20018;-55
2023/10/30 00:44:40;;;;;;;15.70;10.45;;;25.30;99.90;;;;;;5030660;28;20044;-57
2023/10/30 00:47:06;;;;;;;17.67;10.90;;;25.20;99.90;;;;;;5029616;28;20044;-56
2023/10/30 00:49:32;;;;;;;17.33;11.07;;;25.20;99.90;;;;;;5030759;28;20112;-56
2023/10/30 00:51:58;;;;;;;17.35;10.40;;;25.20;99.90;;;;;;5029077;28;20031;-57
2023/10/30 00:54:23;;;;;;;14.98;10.25;;;25.20;99.90;;;;;;5029935;28;20503;-57
2023/10/30 00:56:49;;;;;;;17.83;9.82;;;25.20;99.90;;;;;;5030022;28;20017;-56
2023/10/30 00:59:15;;;;;;;13.77;9.50;;;25.20;99.90;;;;;;5028960;28;20025;-55
2023/10/30 01:01:41;;;;;;;15.40;9.52;;;25.20;99.90;;;;;;5028707;28;20066;-56
2023/10/30 01:04:07;;;;;;;13.23;8.70;;;25.20;99.90;;;;;;5030171;28;20025;-57
2023/10/30 01:06:33;;;;;;;13.85;9.43;;;25.20;99.90;;;;;;5007777;28;20033;-56
2023/10/30 01:08:59;;;;;;;15.88;9.57;;;25.20;99.90;;;;;;5030068;28;20060;-57
2023/10/30 01:11:25;;;;;;;15.63;9.15;;;25.20;99.90;;;;;;5029971;28;20086;-57
2023/10/30 01:13:51;;;;;;;14.23;9.38;;;25.20;99.90;;;;;;5029668;28;20037;-58
2023/10/30 01:16:17;;;;;;;15.43;8.65;;;25.20;99.90;;;;;;5030437;28;20089;-59
2023/10/30 01:18:42;;;;;;;15.20;9.02;;;25.20;99.90;;;;;;5031238;28;20031;-58
2023/10/30 01:21:09;;;;;;;14.18;9.25;;;25.10;99.90;;;;;;5030368;28;20470;-58
2023/10/30 01:23:35;;;;;;;15.65;8.05;;;25.10;99.90;;;;;;5037521;28;20024;-57
2023/10/30 01:26:01;;;;;;;17.92;8.45;;;25.10;99.90;;;;;;5041276;28;20032;-57
2023/10/30 01:28:27;;;;;;;12.30;8.30;;;25.10;99.90;;;;;;5022821;28;20021;-57
2023/10/30 01:30:53;;;;;;;13.32;8.45;;;25.10;99.90;;;;;;5042577;28;20265;-57
2023/10/30 01:33:19;;;;;;;16.75;7.68;;;25.10;99.90;;;;;;5042530;28;20420;-58
2023/10/30 01:35:45;;;;;;;13.02;7.88;;;25.10;99.90;;;;;;5045291;28;20025;-59
2023/10/30 01:38:11;;;;;;;14.90;8.25;;;25.10;99.90;;;;;;5046754;28;20151;-55
2023/10/30 01:40:36;;;;;;;11.68;7.45;;;25.10;99.90;;;;;;5044951;28;20029;-55
2023/10/30 01:43:08;;;;;;;12.93;7.85;;;25.10;99.90;;;;;;5045506;28;20519;-60
2023/10/30 01:45:34;;;;;;;12.75;8.00;;;25.10;99.90;;;;;;5042216;28;20013;-56
2023/10/30 01:48:01;;;;;;;13.20;6.88;;;25.10;99.90;;;;;;5045641;28;20021;-55
2023/10/30 01:50:27;;;;;;;15.32;8.32;;;25.00;99.90;;;;;;5046437;28;20060;-55
2023/10/30 01:52:53;;;;;;;13.82;7.18;;;25.00;99.90;;;;;;5044473;28;20037;-55
2023/10/30 01:55:20;;;;;;;10.60;6.22;;;25.00;99.90;;;;;;5044449;28;20029;-56
2023/10/30 01:57:45;;;;;;;12.07;6.80;;;25.00;99.90;;;;;;5044945;28;20021;-57
2023/10/30 02:00:12;;;;;;;9.77;6.40;;;25.00;99.90;;;;;;5025696;28;20041;-57
2023/10/30 02:02:39;;;;;;;11.52;6.82;;;25.00;99.90;;;;;;5038919;28;20136;-57
2023/10/30 02:05:08;;;;;;;12.35;6.22;;;25.00;99.90;;;;;;5046376;28;20112;-56
2023/10/30 02:07:36;;;;;;;10.93;5.93;;;25.00;99.90;;;;;;5040996;28;20070;-55
2023/10/30 02:10:04;;;;;;;12.85;5.80;;;25.00;99.90;;;;;;5044896;28;20127;-56
2023/10/30 02:12:30;;;;;;;9.75;5.45;;;25.00;99.90;;;;;;5042878;28;20492;-55
2023/10/30 02:14:56;;;;;;;11.55;5.88;;;25.00;99.90;;;;;;5043352;28;20100;-55
2023/10/30 02:17:22;;;;;;;8.70;5.97;;;25.00;99.90;;;;;;5027916;28;20409;-56
2023/10/30 02:19:47;;;;;;;10.23;5.47;;;24.90;99.90;;;;;;5042847;28;20405;-55
2023/10/30 02:22:13;;;;;;;10.75;5.38;;;24.90;99.90;;;;;;5044741;28;20380;-57
2023/10/30 02:24:39;;;;;;;10.75;5.55;;;24.90;99.90;;;;;;5045759;28;20082;-56
2023/10/30 02:27:05;;;;;;;9.90;5.40;;;24.80;99.90;;;;;;5042866;28;20103;-56
2023/10/30 02:29:31;;;;;;;9.88;5.30;;;24.80;99.90;;;;;;5040668;28;20029;-57
2023/10/30 02:31:56;;;;;;;9.20;5.47;;;24.80;99.90;;;;;;5042153;28;20095;-55
2023/10/30 02:34:22;;;;;;;12.77;5.90;;;24.80;99.90;;;;;;5033248;28;20033;-55
2023/10/30 02:36:48;;;;;;;12.45;5.72;;;24.80;99.90;;;;;;5034521;28;20331;-55
2023/10/30 02:39:14;;;;;;;8.82;5.10;;;24.80;99.90;;;;;;5034204;28;20488;-55
2023/10/30 02:41:40;;;;;;;9.48;4.97;;;24.80;99.90;;;;;;5033603;28;20382;-55
2023/10/30 02:44:06;;;;;;;9.07;5.50;;;24.70;99.90;;;;;;5033294;28;20116;-55
2023/10/30 02:46:31;;;;;;;11.55;6.00;;;24.70;99.90;;;;;;5032836;28;20032;-55
2023/10/30 02:48:57;;;;;;;8.85;5.20;;;24.70;99.90;;;;;;5033220;28;20373;-55
2023/10/30 02:51:23;;;;;;;10.52;5.13;;;24.70;99.90;;;;;;5023040;28;20038;-55
2023/10/30 02:53:49;;;;;;;10.32;5.35;;;24.70;99.90;;;;;;4998487;28;20052;-55
2023/10/30 02:56:14;;;;;;;16.65;5.43;;;24.70;99.90;;;;;;5013980;28;20378;-55
2023/10/30 02:58:40;;;;;;;9.55;5.22;;;24.70;99.90;;;;;;5031698;28;20087;-55
2023/10/30 03:01:06;;;;;;;7.45;4.72;;;24.70;99.90;;;;;;5045485;23;20500;-46
2023/10/30 03:03:32;;;;;;;8.75;5.10;;;24.70;99.90;;;;;;5032566;28;20017;-46
2023/10/30 03:05:58;;;;;;;7.88;4.50;;;24.60;99.90;;;;;;5032339;28;20061;-46
2023/10/30 03:08:26;;;;;;;9.05;5.22;;;24.70;99.90;;;;;;5032566;28;20029;-44
2023/10/30 03:10:52;;;;;;;12.18;5.78;;;24.60;99.90;;;;;;5033994;28;20025;-45
2023/10/30 03:13:17;;;;;;;8.82;5.55;;;24.60;99.90;;;;;;5034050;28;20036;-44
2023/10/30 03:15:46;;;;;;;8.88;5.07;;;24.60;99.90;;;;;;5034197;28;20040;-44
2023/10/30 03:18:13;;;;;;;8.15;5.55;;;24.60;99.90;;;;;;5034120;28;20080;-44
2023/10/30 03:20:38;;;;;;;10.18;4.93;;;24.60;99.90;;;;;;5034474;28;20063;-44
2023/10/30 03:23:05;;;;;;;8.02;4.82;;;24.60;99.90;;;;;;5034043;28;20044;-45
2023/10/30 03:25:31;;;;;;;8.23;4.35;;;24.60;99.90;;;;;;5034452;28;20503;-45
2023/10/30 03:27:56;;;;;;;4.75;3.22;;;24.60;99.90;;;;;;5016725;28;20067;-45
2023/10/30 03:30:22;;;;;;;8.48;4.43;;;24.60;99.90;;;;;;5034244;28;20072;-45
2023/10/30 03:32:48;;;;;;;8.43;4.85;;;24.60;99.90;;;;;;5016502;28;20458;-45
2023/10/30 03:35:14;;;;;;;9.40;4.25;;;24.60;99.90;;;;;;5033917;28;20120;-44
2023/10/30 03:37:39;;;;;;;8.15;4.22;;;24.60;99.90;;;;;;5032896;28;20022;-45
2023/10/30 03:40:06;;;;;;;8.13;3.80;;;24.50;99.90;;;;;;5033624;28;20024;-45
2023/10/30 03:42:32;;;;;;;7.45;3.97;;;24.50;99.90;;;;;;5033870;28;20045;-45
2023/10/30 03:44:57;;;;;;;8.80;4.22;;;24.50;99.90;;;;;;5033886;28;20115;-45
2023/10/30 03:47:23;;;;;;;7.70;3.83;;;24.50;99.90;;;;;;5033938;28;20033;-45
2023/10/30 03:49:49;;;;;;;8.90;5.00;;;24.50;99.90;;;;;;5033924;28;20021;-45
2023/10/30 03:52:15;;;;;;;7.35;3.88;;;24.50;99.90;;;;;;5033168;28;20528;-46
2023/10/30 03:54:41;;;;;;;6.30;3.83;;;24.60;99.90;;;;;;5033607;28;20402;-46
2023/10/30 03:57:09;;;;;;;9.73;4.15;;;24.60;99.90;;;;;;5033261;28;20377;-45
2023/10/30 03:59:35;;;;;;;9.02;4.55;;;24.60;99.90;;;;;;5033547;28;20032;-45
2023/10/30 04:02:01;;;;;;;11.27;4.82;;;24.60;99.90;;;;;;5031886;23;20115;-55
2023/10/30 04:04:27;;;;;;;12.07;4.22;;;24.60;99.90;;;;;;5012954;28;20437;-57
2023/10/30 04:06:53;;;;;;;8.45;4.00;;;24.60;99.90;;;;;;5013733;28;20022;-56
2023/10/30 04:09:19;;;;;;;9.35;4.00;;;24.60;99.90;;;;;;4996294;28;20119;-57
2023/10/30 04:11:48;;;;;;;6.88;4.10;;;24.60;99.90;;;;;;5013816;28;20036;-56
2023/10/30 04:14:14;;;;;;;8.93;4.68;;;24.60;99.90;;;;;;5013622;28;20034;-54
2023/10/30 04:16:40;;;;;;;7.32;3.60;;;24.60;99.90;;;;;;5013671;28;20033;-59
2023/10/30 04:19:06;;;;;;;8.32;3.88;;;24.60;99.90;;;;;;5012258;28;20026;-60
2023/10/30 04:21:33;;;;;;;5.70;3.75;;;24.60;99.90;;;;;;4994406;28;20029;-56
2023/10/30 04:23:58;;;;;;;7.07;4.10;;;24.60;99.90;;;;;;5011582;28;20014;-56
2023/10/30 04:26:25;;;;;;;5.43;3.28;;;24.60;99.90;;;;;;5011761;28;20076;-56
2023/10/30 04:28:51;;;;;;;5.07;3.37;;;24.60;99.90;;;;;;5013332;28;20022;-56
2023/10/30 04:31:17;;;;;;;8.48;3.83;;;24.60;99.90;;;;;;5013335;28;20034;-56
2023/10/30 04:33:42;;;;;;;7.00;3.60;;;24.60;99.90;;;;;;4994456;28;20077;-56
2023/10/30 04:36:08;;;;;;;4.53;3.13;;;24.60;99.90;;;;;;4995070;28;20030;-56
2023/10/30 04:38:34;;;;;;;8.00;3.65;;;24.60;99.90;;;;;;5012893;28;20032;-55
2023/10/30 04:41:04;;;;;;;9.27;3.97;;;24.60;99.90;;;;;;5012538;28;20029;-56
2023/10/30 04:43:31;;;;;;;6.35;3.20;;;24.60;99.90;;;;;;5012345;28;20096;-55
2023/10/30 04:45:57;;;;;;;7.30;3.30;;;24.60;99.90;;;;;;5012334;28;20030;-56
2023/10/30 04:48:23;;;;;;;4.78;3.33;;;24.60;99.90;;;;;;5012230;28;20132;-56
2023/10/30 04:50:48;;;;;;;5.88;3.15;;;24.50;99.90;;;;;;5011955;28;20539;-58
2023/10/30 04:53:14;;;;;;;8.45;3.80;;;24.50;99.90;;;;;;5013000;28;20382;-57
2023/10/30 04:55:40;;;;;;;9.20;3.95;;;24.50;99.90;;;;;;5012877;28;20439;-57
2023/10/30 04:58:06;;;;;;;8.48;3.28;;;24.50;99.90;;;;;;5012882;28;20026;-57
2023/10/30 05:00:32;;;;;;;5.70;3.05;;;24.50;99.90;;;;;;5013099;28;20537;-55
2023/10/30 05:02:58;;;;;;;8.68;3.13;;;24.50;99.90;;;;;;5012893;28;20030;-56
2023/10/30 05:05:24;;;;;;;4.97;2.67;;;24.50;99.90;;;;;;5012528;28;20030;-58
2023/10/30 05:07:49;;;;;;;8.00;2.83;;;24.50;99.90;;;;;;5011885;28;20064;-57
2023/10/30 05:10:15;;;;;;;6.55;2.72;;;24.50;99.90;;;;;;5013074;28;20041;-57
2023/10/30 05:12:41;;;;;;;4.55;2.78;;;24.50;99.90;;;;;;5012754;28;20033;-57
2023/10/30 05:15:08;;;;;;;5.00;2.75;;;24.50;99.90;;;;;;5012573;28;20041;-56
2023/10/30 05:17:38;;;;;;;4.28;2.90;;;24.50;99.90;;;;;;5011563;28;20026;-57
2023/10/30 05:20:05;;;;;;;6.28;3.20;;;24.50;99.90;;;;;;5012589;28;20030;-57
2023/10/30 05:22:32;;;;;;;7.15;2.72;;;24.40;99.90;;;;;;5012620;28;20042;-55
2023/10/30 05:24:58;;;;;;;7.28;2.72;;;24.40;99.90;;;;;;5012453;28;20467;-56
2023/10/30 05:27:27;;;;;;;3.80;2.28;;;24.40;99.90;;;;;;4994709;28;20124;-56
2023/10/30 05:29:53;;;;;;;4.35;2.40;;;24.40;99.90;;;;;;5012376;28;20105;-56
2023/10/30 05:32:20;;;;;;;10.85;2.78;;;24.30;99.90;;;;;;5011900;28;20105;-58
2023/10/30 05:34:48;;;;;;;5.45;2.65;;;24.30;99.90;;;;;;5012193;28;20046;-56
2023/10/30 05:37:15;;;;;;;5.97;3.35;;;24.30;99.90;;;;;;5012183;28;20068;-54
2023/10/30 05:39:42;;;;;;;5.82;2.50;;;24.30;99.90;;;;;;5012410;28;20478;-54
2023/10/30 05:42:08;;;;;;;4.50;2.80;;;24.30;99.90;;;;;;5012446;28;20480;-57
2023/10/30 05:44:33;;;;;;;6.00;2.47;;;24.30;99.90;;;;;;5012296;28;20059;-56
2023/10/30 05:46:59;;;;;;;4.22;2.50;;;24.30;99.90;;;;;;5011874;28;20030;-56
2023/10/30 05:49:26;;;;;;;5.82;2.65;;;24.30;99.90;;;;;;5012439;28;20406;-58
2023/10/30 05:51:52;;;;;;;5.00;2.40;;;24.30;99.90;;;;;;5012179;28;20483;-58
2023/10/30 05:54:18;;;;;;;4.13;2.22;;;24.30;99.90;;;;;;5012469;28;20107;-57
2023/10/30 05:56:44;;;;;;;5.82;2.35;;;24.20;99.90;;;;;;4994848;28;20101;-55
2023/10/30 05:59:10;;;;;;;5.75;2.72;;;24.30;99.90;;;;;;5012083;28;20544;-56
2023/10/30 06:01:36;;;;;;;3.80;2.28;;;24.20;99.90;;;;;;5001159;28;20042;-55
2023/10/30 06:04:02;;;;;;;7.35;2.63;;;24.20;99.90;;;;;;4991588;28;20018;-55
2023/10/30 06:06:28;;;;;;;6.30;2.65;;;24.20;99.90;;;;;;4990703;28;20023;-56
2023/10/30 06:08:54;;;;;;;6.57;2.20;;;24.20;99.90;;;;;;5005912;28;20033;-56
2023/10/30 06:11:20;;;;;;;3.25;2.10;;;24.20;99.90;;;;;;5011057;28;20196;-57
2023/10/30 06:13:46;;;;;;;6.05;2.50;;;24.20;99.90;;;;;;5011941;28;20394;-54
2023/10/30 06:16:18;;;;;;;6.43;2.70;;;24.20;99.90;;;;;;5012092;28;20026;-56
2023/10/30 06:18:44;;;;;;;7.88;2.42;;;24.20;99.90;;;;;;5012473;28;20084;-56
2023/10/30 06:21:15;;;;;;;4.80;2.50;;;24.20;99.90;;;;;;5007221;28;20090;-56
2023/10/30 06:23:41;;;;;;;6.30;2.50;;;24.20;99.90;;;;;;5003114;28;20037;-55
2023/10/30 06:26:10;;;;;;;3.97;2.20;;;24.20;99.90;;;;;;5015023;28;20014;-56
2023/10/30 06:28:37;;;;;;;5.13;2.30;;;24.20;99.90;;;;;;5014247;28;20048;-54
2023/10/30 06:31:16;;;;;;;3.70;2.22;;;24.20;99.90;;;;;;5013822;28;20558;-55
2023/10/30 06:33:43;;;;;;;5.72;2.97;;;24.20;99.90;;;;;;4997289;28;20041;-57
2023/10/30 06:36:10;;;;;;;7.03;2.67;;;24.20;99.90;;;;;;4996878;28;20481;-58
2023/10/30 06:38:36;;;;;;;11.43;2.90;;;24.20;99.90;;;;;;5015246;28;20077;-57
2023/10/30 06:41:03;;;;;;;6.38;2.80;;;24.20;99.90;;;;;;5015411;28;20030;-56
2023/10/30 06:43:29;;;;;;;5.45;2.15;;;24.20;99.90;;;;;;5015238;28;20497;-56
2023/10/30 06:46:05;;;;;;;4.85;2.33;;;24.20;99.90;;;;;;4997723;28;20030;-58
2023/10/30 06:48:32;;;;;;;4.65;2.35;;;24.20;99.90;;;;;;4997304;28;20116;-53
2023/10/30 06:50:58;;;;;;;5.57;2.50;;;24.20;99.90;;;;;;5015126;28;20382;-54
2023/10/30 06:53:24;;;;;;;8.38;2.97;;;24.20;99.90;;;;;;5014948;28;20045;-55
2023/10/30 06:55:50;;;;;;;7.75;2.40;;;24.20;99.90;;;;;;5015183;28;20026;-54
2023/10/30 06:58:23;;;;;;;7.32;2.67;;;24.20;99.90;;;;;;5014895;28;20018;-57
2023/10/30 07:00:49;;;;;;;6.93;2.63;;;24.20;99.90;;;;;;4997463;28;20046;-57
2023/10/30 07:03:15;;;;;;;6.43;2.75;;;24.20;99.90;;;;;;5014130;28;20045;-56
2023/10/30 07:05:42;;;;;;;5.85;2.90;;;24.20;99.90;;;;;;5014257;28;20061;-54
2023/10/30 07:08:08;;;;;;;9.83;3.00;;;24.20;99.90;;;;;;5014405;28;20022;-55
2023/10/30 07:10:35;;;;;;;4.95;2.67;;;24.20;99.90;;;;;;4997246;28;20026;-56
2023/10/30 07:13:01;;;;;;;5.23;2.70;;;24.20;99.90;;;;;;5014603;28;20030;-57
2023/10/30 07:15:26;;;;;;;3.65;2.55;;;24.20;99.90;;;;;;4997038;28;20275;-54
2023/10/30 07:17:57;;;;;;;7.15;3.03;;;24.20;99.90;;;;;;4997137;28;20026;-54
2023/10/30 07:20:22;;;;;;;8.50;2.70;;;24.30;99.90;;;;;;5014720;28;20025;-57
2023/10/30 07:22:48;;;;;;;4.93;3.30;;;24.20;99.90;;;;;;5014863;28;20026;-54
2023/10/30 07:25:15;;;;;;;9.43;2.78;;;24.30;99.90;;;;;;5014542;28;20548;-55
2023/10/30 07:27:40;;;;;;;7.20;3.28;;;24.20;99.90;;;;;;5013788;28;20493;-56
2023/10/30 07:30:08;;;;;;;6.25;2.60;;;24.20;99.90;;;;;;5013104;28;20026;-56
2023/10/30 07:32:34;;;;;;;;;;;24.30;99.90;;;;;;5012282;28;20022;-56
2023/10/30 07:35:00;;;;;;;4.97;2.38;;;24.20;99.90;;;;;;5012184;28;20508;-57
2023/10/30 07:37:26;;;;;;;3.60;2.58;;;24.20;99.90;;;;;;5014180;28;20022;-56
2023/10/30 07:39:53;;;;;;;3.93;2.77;;;24.20;99.90;;;;;;5014579;28;20021;-54
2023/10/30 07:42:19;;;;;;;5.55;3.05;;;24.20;99.90;;;;;;5013721;28;20275;-56
2023/10/30 07:44:45;;;;;;;5.43;3.45;;;24.20;99.90;;;;;;5014054;28;20034;-53
2023/10/30 07:47:10;;;;;;;12.05;3.28;;;24.20;99.90;;;;;;5014048;28;20475;-56
2023/10/30 07:49:36;;;;;;;5.15;3.30;;;24.20;99.90;;;;;;5013846;28;20609;-57
2023/10/30 07:52:02;;;;;;;8.10;2.80;;;24.20;99.90;;;;;;5013979;28;20033;-56
2023/10/30 07:54:28;;;;;;;7.38;2.92;;;24.20;99.90;;;;;;5013452;28;20062;-55
2023/10/30 07:56:54;;;;;;;5.53;3.25;;;24.20;99.90;;;;;;5013970;28;21200;-56
2023/10/30 07:59:20;;;;;;;8.30;3.20;;;24.20;99.90;;;;;;5014241;28;20030;-55
2023/10/30 08:01:46;;;;;;;6.22;3.42;;;24.20;99.90;;;;;;5013672;28;20058;-56
2023/10/30 08:04:12;;;;;;;6.70;2.95;;;24.20;99.90;;;;;;5013768;28;20057;-55
2023/10/30 08:06:38;;;;;;;7.40;3.50;;;24.20;99.90;;;;;;5013724;28;20096;-58
2023/10/30 08:09:05;;;;;;;6.03;3.22;;;24.20;99.90;;;;;;5013509;28;20427;-58
2023/10/30 08:11:32;;;;;;;8.95;3.53;;;24.20;99.90;;;;;;5012115;28;20029;-58
2023/10/30 08:13:57;;;;;;;7.90;3.13;;;24.20;99.90;;;;;;5013054;28;20042;-55
2023/10/30 08:16:23;;;;;;;4.93;3.08;;;24.20;99.90;;;;;;5013499;28;20029;-57
2023/10/30 08:18:49;;;;;;;6.78;3.00;;;24.20;99.90;;;;;;5013532;28;20072;-54
2023/10/30 08:21:15;;;;;;;7.57;3.67;;;24.20;99.90;;;;;;5013354;28;20080;-53
2023/10/30 08:23:41;;;;;;;8.75;3.20;;;24.20;99.90;;;;;;5012996;28;20112;-54
2023/10/30 08:26:06;;;;;;;6.40;3.20;;;24.20;99.90;;;;;;5013593;28;20030;-55
2023/10/30 08:28:32;;;;;;;6.55;4.00;;;24.20;99.90;;;;;;5013278;28;20041;-53
2023/10/30 08:30:58;;;;;;;7.43;3.22;;;24.20;99.90;;;;;;4995596;28;20264;-56
2023/10/30 08:33:24;;;;;;;7.28;3.45;;;24.20;99.90;;;;;;5013502;28;20064;-54
2023/10/30 08:35:50;;;;;;;8.25;3.50;;;24.20;99.90;;;;;;5013119;28;20026;-54
2023/10/30 08:38:16;;;;;;;8.07;3.50;;;24.20;99.90;;;;;;5012912;28;20363;-54
2023/10/30 08:40:41;;;;;;;5.07;3.63;;;24.20;99.90;;;;;;4995397;28;20030;-54
2023/10/30 08:43:07;;;;;;;9.55;3.72;;;24.30;99.90;;;;;;5012874;28;20021;-53
2023/10/30 08:45:33;;;;;;;7.80;3.38;;;24.30;99.90;;;;;;5012958;28;20087;-53
2023/10/30 08:47:59;;;;;;;7.90;3.20;;;24.30;99.90;;;;;;5013068;28;20097;-52
2023/10/30 08:50:25;;;;;;;5.78;3.60;;;24.30;99.90;;;;;;5012790;28;20021;-51
2023/10/30 08:52:50;;;;;;;7.50;3.45;;;24.30;99.90;;;;;;5012379;28;20080;-52
2023/10/30 08:55:16;;;;;;;6.40;3.40;;;24.30;99.90;;;;;;5012579;28;20041;-51
2023/10/30 08:57:42;;;;;;;3.88;2.95;;;24.40;99.90;;;;;;4995330;28;20026;-49
2023/10/30 09:00:09;;;;;;;6.57;3.28;;;24.40;99.90;;;;;;5012677;28;20032;-52
2023/10/30 09:02:34;;;;;;;9.30;3.03;;;24.40;99.90;;;;;;5012014;28;20080;-50
2023/10/30 09:05:00;;;;;;;6.40;2.90;;;24.50;99.90;;;;;;5012506;28;20025;-50
2023/10/30 09:07:26;;;;;;;10.07;3.10;;;24.50;99.90;;;;;;5012849;28;20030;-50
2023/10/30 09:09:52;;;;;;;8.05;3.10;;;24.50;99.90;;;;;;5012623;28;20129;-58
2023/10/30 09:12:18;;;;;;;8.60;3.22;;;24.60;99.90;;;;;;5012545;28;20087;-56
2023/10/30 09:14:43;;;;;;;4.00;2.75;;;24.60;99.90;;;;;;5012450;28;20121;-56
2023/10/30 09:17:09;;;;;;;7.15;2.92;;;24.50;99.90;;;;;;5012027;28;20057;-52
2023/10/30 09:19:36;;;;;;;5.20;3.00;;;24.50;99.90;;;;;;5012285;28;20033;-49
2023/10/30 09:22:02;;;;;;;4.40;2.60;;;24.60;99.90;;;;;;5012184;28;20394;-49
2023/10/30 09:24:28;;;;;;;10.90;2.78;;;24.50;99.90;;;;;;5012572;28;20072;-51
2023/10/30 09:26:54;;;;;;;7.78;2.75;;;24.60;99.90;;;;;;5012383;28;20049;-54
2023/10/30 09:29:20;;;;;;;5.30;2.55;;;24.70;99.90;;;;;;5012394;28;20040;-54
2023/10/30 09:31:49;;;;;;;6.50;2.50;;;24.70;99.90;;;;;;5010901;28;20030;-54
2023/10/30 09:34:14;;;;;;;4.65;2.28;;;24.70;99.90;;;;;;5010272;28;20088;-57
2023/10/30 09:36:40;;;;;;;11.68;2.47;;;24.70;99.90;;;;;;4993978;28;20030;-49
2023/10/30 09:39:07;;;;;;;3.83;2.17;;;24.70;99.90;;;;;;5012415;28;20402;-48
2023/10/30 09:41:43;;;;;;;5.80;2.97;;;24.70;99.90;;;;;;4994864;28;20026;-50
2023/10/30 09:44:10;;;;;;;5.65;2.92;;;24.70;99.90;;;;;;5012260;28;20090;-49
2023/10/30 09:46:39;;;;;;;3.37;2.03;;;24.70;99.90;;;;;;5002737;28;20454;-53
2023/10/30 09:49:06;;;;;;;4.25;2.75;;;24.70;99.90;;;;;;4992062;28;20475;-52
2023/10/30 09:51:34;;;;;;;9.13;2.80;;;24.70;99.90;;;;;;5011377;28;20030;-54
2023/10/30 09:54:00;;;;;;;4.57;2.47;;;24.70;99.90;;;;;;5012938;28;20034;-51
2023/10/30 09:56:28;;;;;;;12.70;2.60;;;24.70;99.90;;;;;;5015531;28;20024;-48
2023/10/30 09:58:54;;;;;;;4.78;2.50;;;24.70;99.90;;;;;;5014909;28;20053;-48
2023/10/30 10:01:20;;;;;;;5.10;2.47;;;24.70;99.90;;;;;;5015117;28;20084;-48
2023/10/30 10:03:47;;;;;;;4.18;2.40;;;24.70;99.90;;;;;;5015887;28;20056;-50
2023/10/30 10:06:12;;;;;;;3.47;2.65;;;24.70;99.90;;;;;;4997281;28;20021;-47
2023/10/30 10:08:41;;;;;;;9.20;2.90;;;24.80;99.90;;;;;;4998282;28;20021;-48
2023/10/30 10:11:07;;;;;;;3.83;2.53;;;24.80;99.90;;;;;;5015855;28;20030;-48
2023/10/30 10:13:37;;;;;;;3.67;2.60;;;24.80;99.90;;;;;;5014758;28;20049;-49
2023/10/30 10:16:03;;;;;;;5.10;3.47;;;24.80;99.90;;;;;;5015234;28;20106;-55
2023/10/30 10:18:31;;;;;;;6.13;3.33;;;24.80;99.90;;;;;;5015684;28;20037;-53
2023/10/30 10:21:03;;;;;;;7.60;3.45;;;24.80;99.90;;;;;;5015738;28;20021;-54
2023/10/30 10:23:32;;;;;;;10.27;4.45;;;24.90;99.90;;;;;;5015874;28;20385;-50
2023/10/30 10:26:04;;;;;;;7.15;3.30;;;24.90;99.90;;;;;;5015827;28;20022;-50
2023/10/30 10:28:31;;;;;;;6.18;3.03;;;24.90;99.90;;;;;;4998087;28;20104;-51
2023/10/30 10:30:57;;;;;;;5.15;3.33;;;25.00;99.90;;;;;;5014927;28;20160;-54
2023/10/30 10:33:27;;;;;;;8.93;3.65;;;25.00;99.90;;;;;;5015107;28;20040;-53
2023/10/30 10:35:54;;;;;;;9.32;3.85;;;25.10;99.90;;;;;;5015390;28;20103;-53
2023/10/30 10:38:24;;;;;;;11.05;4.22;;;25.20;99.90;;;;;;5015380;28;20030;-50
2023/10/30 10:40:50;;;;;;;19.85;5.60;;;25.20;99.90;;;;;;5014751;28;20033;-51
2023/10/30 10:43:21;;;;;;;6.70;3.58;;;25.30;99.90;;;;;;5015413;28;20049;-51
2023/10/30 10:45:53;;;;;;;4.88;3.55;;;25.30;99.90;;;;;;5013707;28;20029;-51
2023/10/30 10:48:21;;;;;;;5.30;3.08;;;25.40;99.90;;;;;;5013781;28;20049;-53
2023/10/30 10:50:47;;;;;;;10.40;4.25;;;25.40;99.90;;;;;;5015026;28;20021;-53
2023/10/30 10:53:17;;;;;;;7.00;4.07;;;25.40;99.90;;;;;;5015057;28;20192;-50
2023/10/30 10:55:50;;;;;;;5.80;3.22;;;25.50;99.90;;;;;;5014567;28;20021;-49
2023/10/30 10:58:20;;;;;;;6.80;3.50;;;25.50;99.90;;;;;;5014923;28;20101;-49
2023/10/30 11:00:51;;;;;;;6.72;3.88;;;25.60;99.90;;;;;;4997144;28;20054;-48
2023/10/30 11:03:18;;;;;;;7.05;3.42;;;25.70;99.90;;;;;;5014784;28;20030;-48
2023/10/30 11:05:48;;;;;;;7.57;3.83;;;25.70;99.90;;;;;;5013480;28;20014;-48
2023/10/30 11:08:39;;;;;;;9.55;3.97;;;25.80;99.90;;;;;;4996780;28;20030;-47
2023/10/30 11:11:32;;;;;;;13.40;3.85;;;25.90;99.90;;;;;;5014902;28;20108;-51
2023/10/30 11:14:17;;;;;;;7.97;3.55;;;25.90;99.90;;;;;;5002655;28;20395;-51
2023/10/30 11:17:02;;;;;;;6.60;2.90;;;26.00;99.90;;;;;;4994929;28;20478;-53
2023/10/30 11:19:28;;;;;;;10.27;3.13;;;26.10;99.90;;;;;;4995022;28;20066;-49
2023/10/30 11:21:54;;;;;;;10.02;5.90;;;26.10;99.90;;;;;;5007610;28;20033;-50
2023/10/30 11:24:40;;;;;;;7.90;4.65;;;26.00;99.90;;;;;;5013341;28;20037;-49
2023/10/30 11:27:27;;;;;;;7.75;5.13;;;26.00;99.90;;;;;;5014544;28;20026;-48
2023/10/30 11:30:03;;;;;;;10.82;5.63;;;26.10;99.90;;;;;;4996470;28;20084;-57
2023/10/30 11:32:37;;;;;;;7.28;4.28;;;26.10;99.90;;;;;;5011707;28;20041;-56
2023/10/30 11:35:03;;;;;;;7.35;4.28;;;26.10;99.90;;;;;;5014407;28;20069;-59
2023/10/30 11:37:32;;;;;;;9.05;3.40;;;26.10;99.90;;;;;;5013689;28;20025;-59
2023/10/30 11:40:02;;;;;;;7.47;3.75;;;26.10;99.90;;;;;;4996196;28;20118;-59
2023/10/30 11:42:29;;;;;;;6.72;3.70;;;26.10;99.90;;;;;;5014224;28;20077;-57
2023/10/30 11:45:15;;;;;;;8.38;3.72;;;26.10;99.90;;;;;;5013322;28;20030;-59
2023/10/30 11:47:43;;;;;;;10.80;3.95;;;26.10;99.90;;;;;;5012927;28;20025;-57
2023/10/30 11:50:10;;;;;;;8.25;4.55;;;26.10;99.90;;;;;;4995940;28;20030;-58
2023/10/30 11:52:38;;;;;;;8.60;4.53;;;26.10;99.90;;;;;;5013435;28;20029;-58
2023/10/30 11:55:07;;;;;;;6.80;4.35;;;26.10;99.90;;;;;;5013654;28;20049;-58
2023/10/30 11:57:34;;;;;;;7.47;4.72;;;26.20;99.90;;;;;;5013251;28;20018;-59
2023/10/30 12:00:00;;;;;;;9.85;6.47;;;26.20;99.90;;;;;;5012990;28;20026;-57
2023/10/30 12:02:27;;;;;;;6.40;5.00;;;26.20;99.90;;;;;;5009542;28;20073;-57
2023/10/30 12:04:53;;;;;;;9.38;4.00;;;26.20;99.90;;;;;;5012309;28;20087;-59
2023/10/30 12:07:19;;;;;;;9.07;4.05;;;26.20;99.90;;;;;;5012885;28;20120;-55
2023/10/30 12:09:44;;;;;;;10.23;4.70;;;26.20;99.90;;;;;;5013342;28;20081;-56
2023/10/30 12:12:11;;;;;;;5.93;3.50;;;26.20;99.90;;;;;;5013307;28;20025;-56
2023/10/30 12:14:38;;;;;;;9.85;3.83;;;26.20;99.90;;;;;;5013139;28;20038;-56
2023/10/30 12:17:04;;;;;;;8.57;4.65;;;26.20;99.90;;;;;;5013298;28;20030;-57
2023/10/30 12:19:30;;;;;;;11.15;4.10;;;26.20;99.90;;;;;;5012587;28;20030;-53
2023/10/30 12:21:56;;;;;;;12.35;5.70;;;26.20;99.90;;;;;;5011517;28;20161;-56
2023/10/30 12:24:25;;;;;;;6.65;3.90;;;26.10;99.90;;;;;;5012354;28;20080;-54
2023/10/30 12:26:51;;;;;;;10.80;3.95;;;25.90;99.90;;;;;;5012949;28;20478;-55
2023/10/30 12:29:24;;;;;;;13.63;4.63;;;25.70;99.90;;;;;;5013175;28;20036;-54
2023/10/30 12:32:11;;;;;;;11.75;5.07;;;25.40;99.90;;;;;;5013133;28;20089;-55
2023/10/30 12:34:38;;;;;;;11.93;4.03;;;25.20;99.90;;;;;;5013031;28;20437;-52
2023/10/30 12:37:26;;;;;;;13.93;5.28;;;25.00;99.90;;;;;;5012700;28;20024;-54
2023/10/30 12:40:04;;;;;;;7.68;3.83;;;24.90;99.90;;;;;;4995923;28;20084;-53
2023/10/30 12:42:37;;;;;;;12.38;4.10;;;24.80;99.90;;;;;;5013145;28;20029;-54